createdAt,value
2019-03-21T00:00:04.361Z,31
2019-03-21T00:15:04.127Z,31
2019-03-21T00:30:05.106Z,31
2019-03-21T00:45:04.360Z,31
2019-03-21T01:00:04.694Z,32
2019-03-21T01:15:05.028Z,31
2019-03-21T01:30:04.539Z,31
2019-03-21T01:45:04.314Z,31
2019-03-21T02:00:04.136Z,31
2019-03-21T02:15:04.807Z,31
2019-03-21T02:30:09.302Z,31
2019-03-21T02:45:09.963Z,31
2019-03-21T03:00:04.347Z,31
2019-03-21T03:15:05.110Z,31
2019-03-21T03:30:04.604Z,30
2019-03-21T03:45:04.919Z,30
2019-03-21T04:00:04.949Z,31
2019-03-21T04:15:04.754Z,30
2019-03-21T04:30:04.206Z,31
2019-03-21T04:45:09.557Z,32
2019-03-21T05:00:04.794Z,32
2019-03-21T05:15:04.615Z,36
2019-03-21T05:30:04.881Z,41
2019-03-21T05:45:04.172Z,35
2019-03-21T06:00:04.529Z,38
2019-03-21T06:15:04.806Z,38
2019-03-21T06:30:05.082Z,37
2019-03-21T06:45:04.389Z,33
2019-03-21T07:00:04.968Z,33
2019-03-21T07:15:04.741Z,31
2019-03-21T07:30:04.365Z,31
2019-03-21T07:45:04.694Z,32
2019-03-21T08:00:05.062Z,31
2019-03-21T08:15:04.363Z,30
2019-03-21T08:30:04.285Z,31
2019-03-21T08:45:05.147Z,31
2019-03-21T09:00:04.895Z,32
2019-03-21T09:15:04.750Z,34
2019-03-21T09:30:04.353Z,33
2019-03-21T09:45:04.815Z,30
2019-03-21T10:00:04.548Z,30
2019-03-21T10:15:04.301Z,31
2019-03-21T10:30:04.793Z,30
2019-03-21T10:45:05.097Z,30
2019-03-21T11:00:04.452Z,31
2019-03-21T11:15:04.256Z,30
2019-03-21T11:30:16.538Z,31
2019-03-21T11:45:04.296Z,31
2019-03-21T12:00:04.599Z,31
2019-03-21T12:15:04.349Z,29
2019-03-21T12:30:04.858Z,30
2019-03-21T12:45:05.187Z,30
2019-03-21T13:00:05.034Z,30
2019-03-21T13:15:04.366Z,30
2019-03-21T13:30:04.353Z,30
2019-03-21T13:45:04.126Z,30
2019-03-21T14:00:04.497Z,30
2019-03-21T14:15:04.298Z,30
2019-03-21T14:30:04.818Z,30
2019-03-21T14:45:04.298Z,30
2019-03-21T15:00:05.121Z,30
2019-03-21T15:15:09.642Z,31
2019-03-21T15:30:10.202Z,31
2019-03-21T15:45:24.018Z,32
2019-03-21T16:00:04.611Z,31
2019-03-21T16:15:05.224Z,33
2019-03-21T16:30:05.046Z,36
2019-03-21T16:45:04.256Z,36
2019-03-21T17:00:04.586Z,33
2019-03-21T17:15:09.974Z,42
2019-03-21T17:30:19.250Z,40
2019-03-21T17:45:04.502Z,37
2019-03-21T18:00:04.776Z,37
2019-03-21T18:15:04.543Z,40
2019-03-21T18:30:05.130Z,36
2019-03-21T18:45:04.905Z,35
2019-03-21T19:00:04.232Z,34
2019-03-21T19:15:04.973Z,37
2019-03-21T19:30:04.471Z,32
2019-03-21T19:45:04.237Z,34
2019-03-21T20:00:04.979Z,33
2019-03-21T20:15:04.205Z,32
2019-03-21T20:30:04.756Z,36
2019-03-21T20:45:04.505Z,32
2019-03-21T21:00:04.830Z,33
2019-03-21T21:15:04.146Z,32
2019-03-21T21:30:04.723Z,32
2019-03-21T21:45:05.067Z,31
2019-03-21T22:00:04.863Z,32
2019-03-21T22:15:04.597Z,32
2019-03-21T22:30:04.658Z,31
2019-03-21T22:45:04.942Z,32
2019-03-21T23:00:04.739Z,32
2019-03-21T23:15:04.496Z,31
2019-03-21T23:30:05.088Z,31
2019-03-21T23:45:04.854Z,31
